New Yoshino — JG5527 — position and weather

sailwx.info

Track history (hours):
 
Tides and Currents Weather Stations Pressure Air Temp Water Temp Dewpoint Dewpoint Depression Visibility Wind Speed Wind Dir Waves Ship Positions

New Yoshino

Last reported at 2015-Jul-26 22:31 UTC. Time now 2015-Jul-30 04:07 UTC.
Position N 36°58' E 141°06'.

Length 102 m; draft 6.2 m.

Type: Tanker. MMSI: 431300724.

Date/timePositionNaut miles runAvg speedWind from/ knotsBaromVisibWave heightAir tempDewpointWater temp
2015-Jul-26 22:31N 36°58' E 141°06'1313.6
2015-Jul-26 21:33N 36°45' E 141°05'1413.4
2015-Jul-26 20:31N 36°31' E 141°03'1413.3
2015-Jul-26 19:28N 36°17' E 141°02'1213.6
2015-Jul-26 18:33N 36°05' E 141°00'1413.5
2015-Jul-26 17:33N 35°51' E 140°59'1313.1
2015-Jul-26 16:33N 35°38' E 140°56'1313.3
2015-Jul-26 15:33N 35°28' E 140°46'1313.2
2015-Jul-26 14:33N 35°17' E 140°36'1414.0
2015-Jul-26 13:33N 35°06' E 140°25'1312.8
2015-Jul-26 12:33N 34°59' E 140°13'1312.8
2015-Jul-26 11:34N 34°51' E 139°60'1212.1
2015-Jul-26 10:33N 34°52' E 139°45'1313.5
2015-Jul-26 09:34N 35°05' E 139°44'1312.5
2015-Jul-26 08:33N 35°18' E 139°44'1211.5
2015-Jul-26 07:33N 35°29' E 139°48'2 2.3
2015-Jul-26 06:29N 35°31' E 139°46'0 0.0
2015-Jul-26 05:32N 35°31' E 139°46'0 0.0
2015-Jul-26 04:32N 35°31' E 139°46'0 0.0
2015-Jul-26 03:26N 35°31' E 139°46'0 0.0
2015-Jul-26 02:32N 35°31' E 139°46'0 0.0
2015-Jul-26 01:32N 35°31' E 139°46'0 0.0
2015-Jul-26 00:29N 35°31' E 139°46'1 0.9
2015-Jul-25 23:33N 35°30' E 139°46'7 6.5
2015-Jul-25 22:34N 35°24' E 139°45'0 0.1
2015-Jul-25 21:31N 35°24' E 139°45'0 0.0
2015-Jul-25 20:31N 35°24' E 139°45'5 5.7
2015-Jul-25 19:34N 35°19' E 139°44'1212.0
2015-Jul-25 18:33N 35°07' E 139°45'1815.0
2015-Jul-25 17:20N 34°55' E 139°28'226 6.9
2015-Jul-24 08:30N 34°02' E 135°02'7 0.9
2015-Jul-24 00:33N 34°07' E 135°07'2 1.5
2015-Jul-23 23:33N 34°09' E 135°08'0 0.0
2015-Jul-23 22:33N 34°09' E 135°08'0 0.0
2015-Jul-23 21:33N 34°09' E 135°08'0 0.0
2015-Jul-23 20:33N 34°09' E 135°08'0 0.0
2015-Jul-23 19:33N 34°09' E 135°08'0 0.0
2015-Jul-23 18:33N 34°09' E 135°08'0 0.0
2015-Jul-23 17:33N 34°09' E 135°08'0 0.0
2015-Jul-23 16:33N 34°09' E 135°08'0 0.1
2015-Jul-23 15:33N 34°09' E 135°08'0 0.0
2015-Jul-23 14:33N 34°09' E 135°08'0 0.0
2015-Jul-23 13:33N 34°09' E 135°08'0 0.1
2015-Jul-23 12:33N 34°09' E 135°08'6 6.5
2015-Jul-23 11:33N 34°05' E 135°01'  
Track history (hours):
 
Tides and Currents Weather Stations Pressure Air Temp Water Temp Dewpoint Dewpoint Depression Visibility Wind Speed Wind Dir Waves Ship Positions

New Yoshino

Last reported at 2015-Jul-26 22:31 UTC. Time now 2015-Jul-30 04:07 UTC.
Position N 36°58' E 141°06'.

Length 102 m; draft 6.2 m.

Type: Tanker. MMSI: 431300724.

Date/timePositionNaut miles runAvg speedWind from/ knotsBaromVisibWave heightAir tempDewpointWater temp
2015-Jul-26 22:31N 36°58' E 141°06'1313.6
2015-Jul-26 21:33N 36°45' E 141°05'1413.4
2015-Jul-26 20:31N 36°31' E 141°03'1413.3
2015-Jul-26 19:28N 36°17' E 141°02'1213.6
2015-Jul-26 18:33N 36°05' E 141°00'1413.5
2015-Jul-26 17:33N 35°51' E 140°59'1313.1
2015-Jul-26 16:33N 35°38' E 140°56'1313.3
2015-Jul-26 15:33N 35°28' E 140°46'1313.2
2015-Jul-26 14:33N 35°17' E 140°36'1414.0
2015-Jul-26 13:33N 35°06' E 140°25'1312.8
2015-Jul-26 12:33N 34°59' E 140°13'1312.8
2015-Jul-26 11:34N 34°51' E 139°60'1212.1
2015-Jul-26 10:33N 34°52' E 139°45'1313.5
2015-Jul-26 09:34N 35°05' E 139°44'1312.5
2015-Jul-26 08:33N 35°18' E 139°44'1211.5
2015-Jul-26 07:33N 35°29' E 139°48'2 2.3
2015-Jul-26 06:29N 35°31' E 139°46'0 0.0
2015-Jul-26 05:32N 35°31' E 139°46'0 0.0
2015-Jul-26 04:32N 35°31' E 139°46'0 0.0
2015-Jul-26 03:26N 35°31' E 139°46'0 0.0
2015-Jul-26 02:32N 35°31' E 139°46'0 0.0
2015-Jul-26 01:32N 35°31' E 139°46'0 0.0
2015-Jul-26 00:29N 35°31' E 139°46'1 0.9
2015-Jul-25 23:33N 35°30' E 139°46'7 6.5
2015-Jul-25 22:34N 35°24' E 139°45'0 0.1
2015-Jul-25 21:31N 35°24' E 139°45'0 0.0
2015-Jul-25 20:31N 35°24' E 139°45'5 5.7
2015-Jul-25 19:34N 35°19' E 139°44'1212.0
2015-Jul-25 18:33N 35°07' E 139°45'1815.0
2015-Jul-25 17:20N 34°55' E 139°28'226 6.9
2015-Jul-24 08:30N 34°02' E 135°02'7 0.9
2015-Jul-24 00:33N 34°07' E 135°07'2 1.5
2015-Jul-23 23:33N 34°09' E 135°08'0 0.0
2015-Jul-23 22:33N 34°09' E 135°08'0 0.0
2015-Jul-23 21:33N 34°09' E 135°08'0 0.0
2015-Jul-23 20:33N 34°09' E 135°08'0 0.0
2015-Jul-23 19:33N 34°09' E 135°08'0 0.0
2015-Jul-23 18:33N 34°09' E 135°08'0 0.0
2015-Jul-23 17:33N 34°09' E 135°08'0 0.0
2015-Jul-23 16:33N 34°09' E 135°08'0 0.1
2015-Jul-23 15:33N 34°09' E 135°08'0 0.0
2015-Jul-23 14:33N 34°09' E 135°08'0 0.0
2015-Jul-23 13:33N 34°09' E 135°08'0 0.1
2015-Jul-23 12:33N 34°09' E 135°08'6 6.5
2015-Jul-23 11:33N 34°05' E 135°01'  

Dump ship's entire track history